createdAt,value
2022-09-21T00:00:47.350Z,11.18
2022-09-21T00:03:13.631Z,11.19
2022-09-21T00:05:39.887Z,11.19
2022-09-21T00:08:06.134Z,11.21
2022-09-21T00:10:32.412Z,11.18
2022-09-21T00:12:58.991Z,11.19
2022-09-21T00:15:25.239Z,11.14
2022-09-21T00:17:51.490Z,11.17
2022-09-21T00:20:17.734Z,11.18
2022-09-21T00:22:44.097Z,11.18
2022-09-21T00:25:10.352Z,11.20
2022-09-21T00:27:36.611Z,11.21
2022-09-21T00:30:03.247Z,11.23
2022-09-21T00:32:31.253Z,11.22
2022-09-21T00:34:57.524Z,11.24
2022-09-21T00:37:23.771Z,11.26
2022-09-21T00:39:50.028Z,11.23
2022-09-21T00:42:16.299Z,11.22
2022-09-21T00:44:42.556Z,11.24
2022-09-21T00:47:09.031Z,11.24
2022-09-21T00:49:35.318Z,11.23
2022-09-21T00:52:02.031Z,11.25
2022-09-21T00:54:28.277Z,11.23
2022-09-21T00:56:54.539Z,11.21
2022-09-21T00:59:21.936Z,11.20
2022-09-21T01:01:49.051Z,11.21
2022-09-21T01:04:15.354Z,11.17
2022-09-21T01:06:41.639Z,11.17
2022-09-21T01:09:07.891Z,11.17
2022-09-21T01:11:34.421Z,11.16
2022-09-21T01:14:00.703Z,11.09
2022-09-21T01:16:27.037Z,11.10
2022-09-21T01:18:53.336Z,11.08
2022-09-21T01:21:19.772Z,10.87
2022-09-21T01:23:46.038Z,10.94
2022-09-21T01:26:12.291Z,10.92
2022-09-21T01:28:38.559Z,10.91
2022-09-21T01:31:05.927Z,10.90
2022-09-21T01:33:32.210Z,10.81
2022-09-21T01:35:58.635Z,10.81
2022-09-21T01:38:24.920Z,10.79
2022-09-21T01:40:51.187Z,10.72
2022-09-21T01:43:17.450Z,10.70
2022-09-21T01:45:43.720Z,10.63
2022-09-21T01:48:10.811Z,10.60
2022-09-21T01:50:36.982Z,10.51
2022-09-21T01:53:03.240Z,10.49
2022-09-21T01:55:29.655Z,10.49
2022-09-21T01:57:55.902Z,10.45
2022-09-21T02:00:22.168Z,10.47
2022-09-21T02:02:48.421Z,10.46
2022-09-21T02:05:16.364Z,10.43
2022-09-21T02:07:42.627Z,10.44
2022-09-21T02:10:08.878Z,10.36
2022-09-21T02:12:35.131Z,10.22
2022-09-21T02:15:01.379Z,10.27
2022-09-21T02:17:27.634Z,10.25
2022-09-21T02:19:54.329Z,10.19
2022-09-21T02:22:20.897Z,10.13
2022-09-21T02:24:47.190Z,10.13
2022-09-21T02:27:13.467Z,10.06
2022-09-21T02:29:39.719Z,10.02
2022-09-21T02:32:06.227Z,10.02
2022-09-21T02:34:33.385Z,9.91
2022-09-21T02:36:59.570Z,9.95
2022-09-21T02:39:25.821Z,9.90
2022-09-21T02:41:52.066Z,9.95
2022-09-21T02:44:18.791Z,9.95
2022-09-21T02:46:45.129Z,10.00
2022-09-21T02:49:11.415Z,10.01
2022-09-21T02:51:37.656Z,10.02
2022-09-21T02:54:03.898Z,9.93
2022-09-21T02:56:30.155Z,9.98
2022-09-21T02:58:56.820Z,10.00
2022-09-21T03:01:23.117Z,10.04
2022-09-21T03:03:49.365Z,10.07
2022-09-21T03:06:15.620Z,10.08
2022-09-21T03:08:41.874Z,9.90
2022-09-21T03:11:08.127Z,10.01
2022-09-21T03:13:34.567Z,10.10
2022-09-21T03:16:00.868Z,10.15
2022-09-21T03:18:27.142Z,10.09
2022-09-21T03:20:53.399Z,10.17
2022-09-21T03:23:19.679Z,10.21
2022-09-21T03:25:46.105Z,10.20
2022-09-21T03:28:13.390Z,10.22
2022-09-21T03:30:39.666Z,10.27
2022-09-21T03:33:06.319Z,10.29
2022-09-21T03:35:33.942Z,10.31
2022-09-21T03:38:00.200Z,10.32
2022-09-21T03:40:29.498Z,10.33
2022-09-21T03:42:55.951Z,10.36
2022-09-21T03:45:22.225Z,10.32
2022-09-21T03:47:48.494Z,10.35
2022-09-21T03:50:14.741Z,10.37
2022-09-21T03:52:40.999Z,10.39
2022-09-21T03:55:07.252Z,10.40
2022-09-21T03:57:34.307Z,10.40
2022-09-21T04:00:00.554Z,10.40
2022-09-21T04:02:27.181Z,10.37
2022-09-21T04:04:53.441Z,10.32
2022-09-21T04:07:19.715Z,10.38
2022-09-21T04:09:45.967Z,10.38
2022-09-21T04:12:12.282Z,10.40
2022-09-21T04:14:38.537Z,10.37
2022-09-21T04:17:04.847Z,10.38
2022-09-21T04:19:31.123Z,10.32
2022-09-21T04:21:57.541Z,10.32
2022-09-21T04:24:23.798Z,10.29
2022-09-21T04:26:50.152Z,10.25
2022-09-21T04:29:16.443Z,10.24
2022-09-21T04:31:42.717Z,10.19
2022-09-21T04:34:08.964Z,10.16
2022-09-21T04:36:36.803Z,10.15
2022-09-21T04:39:03.222Z,10.11
2022-09-21T04:41:29.492Z,10.06
2022-09-21T04:43:55.753Z,10.02
2022-09-21T04:46:22.183Z,9.96
2022-09-21T04:48:48.483Z,9.96
2022-09-21T04:51:14.752Z,9.92
2022-09-21T04:53:42.010Z,9.89
2022-09-21T04:56:08.260Z,9.90
2022-09-21T04:58:34.514Z,9.87
2022-09-21T05:01:00.795Z,9.87
2022-09-21T05:03:27.101Z,9.85
2022-09-21T05:05:56.556Z,9.87
2022-09-21T05:08:42.863Z,9.90
2022-09-21T05:11:09.779Z,9.91
2022-09-21T05:13:36.040Z,9.96
2022-09-21T05:16:02.451Z,10.00
2022-09-21T05:18:29.433Z,10.07
2022-09-21T05:20:56.044Z,10.10
2022-09-21T05:23:22.294Z,10.17
2022-09-21T05:25:48.542Z,10.20
2022-09-21T05:28:14.799Z,10.27
2022-09-21T05:30:56.109Z,10.34
2022-09-21T05:33:27.275Z,10.34
2022-09-21T05:35:54.081Z,10.29
2022-09-21T05:38:20.601Z,10.36
2022-09-21T05:40:50.253Z,10.42
2022-09-21T05:43:16.511Z,10.28
2022-09-21T05:45:47.277Z,10.23
2022-09-21T05:48:14.129Z,10.31
2022-09-21T05:50:40.387Z,10.33
2022-09-21T05:53:06.629Z,10.26
2022-09-21T05:55:32.891Z,10.48
2022-09-21T05:57:59.246Z,10.57
2022-09-21T06:00:25.547Z,10.57
2022-09-21T06:02:51.816Z,10.49
2022-09-21T06:05:18.073Z,10.62
2022-09-21T06:07:44.357Z,10.70
2022-09-21T06:10:10.610Z,10.77
2022-09-21T06:12:36.899Z,10.85
2022-09-21T06:15:03.216Z,10.69
2022-09-21T06:17:29.481Z,10.71
2022-09-21T06:19:55.822Z,10.92
2022-09-21T06:22:22.062Z,10.76
2022-09-21T06:24:48.476Z,10.89
2022-09-21T06:27:14.733Z,10.99
2022-09-21T06:29:40.991Z,11.08
2022-09-21T06:32:07.251Z,11.18
2022-09-21T06:34:36.645Z,11.19
2022-09-21T06:37:03.247Z,11.33
2022-09-21T06:39:29.518Z,11.32
2022-09-21T06:41:56.365Z,11.35
2022-09-21T06:44:22.611Z,11.34
2022-09-21T06:46:48.865Z,11.40
2022-09-21T06:49:15.140Z,11.42
2022-09-21T06:51:41.391Z,11.30
2022-09-21T06:54:07.691Z,11.27
2022-09-21T06:56:34.043Z,11.40
2022-09-21T06:59:00.326Z,11.42
2022-09-21T07:01:26.661Z,11.30
2022-09-21T07:03:53.977Z,11.51
2022-09-21T07:06:20.374Z,11.34
2022-09-21T07:11:32.930Z,11.66
2022-09-21T07:13:59.742Z,11.66
2022-09-21T07:16:26.114Z,11.69
2022-09-21T07:18:52.419Z,11.66
2022-09-21T07:21:18.680Z,11.77
2022-09-21T07:23:45.027Z,11.82
2022-09-21T07:26:11.283Z,11.81
2022-09-21T07:28:37.537Z,11.99
2022-09-21T07:31:03.798Z,11.82
2022-09-21T07:33:36.017Z,11.90
2022-09-21T07:36:03.942Z,11.99
2022-09-21T07:38:30.196Z,12.12
2022-09-21T07:40:56.464Z,12.14
2022-09-21T07:43:22.730Z,12.25
2022-09-21T07:45:49.111Z,12.36
2022-09-21T07:48:15.380Z,12.20
2022-09-21T07:50:42.015Z,11.90
2022-09-21T07:53:08.282Z,12.08
2022-09-21T07:55:34.604Z,12.26
2022-09-21T07:58:19.616Z,12.15
2022-09-21T08:00:45.998Z,12.54
2022-09-21T08:03:12.772Z,12.75
2022-09-21T08:05:39.032Z,12.70
2022-09-21T08:08:05.278Z,12.74
2022-09-21T08:10:32.721Z,12.68
2022-09-21T08:12:59.062Z,12.45
2022-09-21T08:15:47.565Z,12.91
2022-09-21T08:18:11.883Z,12.63
2022-09-21T08:20:38.757Z,12.55
2022-09-21T08:23:04.999Z,12.89
2022-09-21T08:25:31.475Z,12.83
2022-09-21T08:27:58.157Z,12.70
2022-09-21T08:30:27.857Z,12.94
2022-09-21T08:32:54.192Z,12.94
2022-09-21T08:35:20.471Z,13.37
2022-09-21T08:37:46.722Z,13.54
2022-09-21T08:40:15.076Z,13.34
2022-09-21T08:42:41.414Z,13.60
2022-09-21T08:45:10.022Z,13.49
2022-09-21T08:47:36.294Z,13.75
2022-09-21T08:50:02.550Z,13.81
2022-09-21T08:52:28.831Z,13.84
2022-09-21T08:54:55.085Z,13.58
2022-09-21T08:57:21.456Z,13.34
2022-09-21T08:59:47.757Z,13.90
2022-09-21T09:02:14.210Z,13.92
2022-09-21T09:04:40.564Z,14.47
2022-09-21T09:07:06.839Z,14.31
2022-09-21T09:09:33.099Z,13.74
2022-09-21T09:11:59.368Z,13.14
2022-09-21T09:14:25.940Z,13.15
2022-09-21T09:16:52.204Z,13.46
2022-09-21T09:19:18.457Z,13.54
2022-09-21T09:21:44.731Z,13.78
2022-09-21T09:24:11.021Z,14.39
2022-09-21T09:26:37.466Z,14.65
2022-09-21T09:29:03.727Z,14.72
2022-09-21T09:31:30.170Z,14.36
2022-09-21T09:33:56.912Z,14.38
2022-09-21T09:36:46.549Z,14.81
2022-09-21T09:39:11.862Z,14.85
2022-09-21T09:41:38.150Z,14.73
2022-09-21T09:44:04.410Z,14.15
2022-09-21T09:46:31.249Z,14.74
2022-09-21T09:48:57.671Z,14.57
2022-09-21T09:51:23.928Z,14.62
2022-09-21T09:53:50.571Z,14.36
2022-09-21T09:56:16.819Z,14.56
2022-09-21T09:58:43.071Z,14.74
2022-09-21T10:01:09.330Z,15.03
2022-09-21T10:03:36.134Z,14.89
2022-09-21T10:06:02.386Z,14.72
2022-09-21T10:08:28.746Z,14.55
2022-09-21T10:10:55.007Z,14.65
2022-09-21T10:13:21.250Z,15.31
2022-09-21T10:15:47.732Z,16.14
2022-09-21T10:18:14.021Z,15.93
2022-09-21T10:20:40.283Z,15.44
2022-09-21T10:23:06.554Z,16.06
2022-09-21T10:25:36.855Z,16.21
2022-09-21T10:28:05.979Z,16.13
2022-09-21T10:30:32.315Z,15.74
2022-09-21T10:32:58.566Z,15.45
2022-09-21T10:35:25.092Z,15.50
2022-09-21T10:37:54.370Z,15.60
2022-09-21T10:40:20.785Z,15.49
2022-09-21T10:42:47.113Z,15.24
2022-09-21T10:45:14.507Z,15.48
2022-09-21T10:47:40.805Z,15.02
2022-09-21T10:50:07.055Z,15.24
2022-09-21T10:52:33.311Z,15.21
2022-09-21T10:54:59.566Z,14.92
2022-09-21T10:57:25.893Z,15.14
2022-09-21T10:59:52.181Z,15.14
2022-09-21T11:02:18.487Z,15.55
2022-09-21T11:04:44.787Z,15.57
2022-09-21T11:07:11.062Z,15.59
2022-09-21T11:09:37.325Z,16.18
2022-09-21T11:12:04.315Z,15.98
2022-09-21T11:14:30.575Z,15.93
2022-09-21T11:16:56.849Z,15.57
2022-09-21T11:19:23.095Z,15.31
2022-09-21T11:21:49.344Z,15.06
2022-09-21T11:24:15.594Z,15.46
2022-09-21T11:29:13.359Z,15.34
2022-09-21T11:31:39.683Z,15.75
2022-09-21T11:34:06.046Z,16.25
2022-09-21T11:36:32.449Z,16.10
2022-09-21T11:38:58.701Z,15.76
2022-09-21T11:41:24.976Z,15.66
2022-09-21T11:43:51.315Z,15.55
2022-09-21T11:46:17.660Z,16.07
2022-09-21T11:48:43.955Z,16.72
2022-09-21T11:51:10.208Z,16.80
2022-09-21T11:53:37.004Z,17.00
2022-09-21T11:56:03.536Z,16.84
2022-09-21T11:58:29.843Z,16.57
2022-09-21T12:00:58.194Z,16.82
2022-09-21T12:03:24.471Z,16.16
2022-09-21T12:05:50.824Z,16.57
2022-09-21T12:08:17.116Z,16.68
2022-09-21T12:10:43.458Z,16.69
2022-09-21T12:13:09.741Z,16.70
2022-09-21T12:15:36.003Z,16.54
2022-09-21T12:18:02.262Z,16.38
2022-09-21T12:20:28.539Z,16.34
2022-09-21T12:22:54.803Z,16.46
2022-09-21T12:25:21.418Z,16.55
2022-09-21T12:27:47.680Z,16.89
2022-09-21T12:30:13.963Z,16.72
2022-09-21T12:32:40.224Z,16.90
2022-09-21T12:35:06.629Z,16.89
2022-09-21T12:37:32.882Z,16.57
2022-09-21T12:39:59.238Z,16.83
2022-09-21T12:42:25.558Z,16.97
2022-09-21T12:44:52.221Z,17.13
2022-09-21T12:47:18.706Z,17.10
2022-09-21T12:49:44.969Z,17.11
2022-09-21T12:52:11.227Z,16.72
2022-09-21T12:54:37.925Z,16.65
2022-09-21T12:57:23.487Z,16.44
2022-09-21T12:59:50.564Z,16.42
2022-09-21T13:02:17.353Z,16.88
2022-09-21T13:04:43.736Z,17.03
2022-09-21T13:07:09.993Z,17.41
2022-09-21T13:09:36.242Z,17.27
2022-09-21T13:12:04.247Z,17.25
2022-09-21T13:14:30.414Z,17.55
2022-09-21T13:16:57.617Z,17.39
2022-09-21T13:19:23.867Z,17.42
2022-09-21T13:21:50.302Z,17.32
2022-09-21T13:24:16.590Z,17.36
2022-09-21T13:26:42.849Z,17.21
2022-09-21T13:29:09.684Z,17.14
2022-09-21T13:31:40.893Z,16.82
2022-09-21T13:34:08.900Z,17.26
2022-09-21T13:36:35.250Z,16.61
2022-09-21T13:39:01.507Z,16.61
2022-09-21T13:41:45.533Z,16.48
2022-09-21T13:44:14.026Z,16.57
2022-09-21T13:46:40.283Z,16.75
2022-09-21T13:49:06.546Z,16.76
2022-09-21T13:51:33.237Z,17.09
2022-09-21T13:54:00.463Z,16.90
2022-09-21T13:56:26.710Z,17.41
2022-09-21T13:58:52.987Z,17.40
2022-09-21T14:01:45.076Z,17.57
2022-09-21T14:04:06.559Z,17.49
2022-09-21T14:06:35.108Z,17.41
2022-09-21T14:09:01.376Z,17.42
2022-09-21T14:11:28.001Z,16.97
2022-09-21T14:13:54.480Z,16.81
2022-09-21T14:16:20.843Z,17.02
2022-09-21T14:18:47.323Z,16.66
2022-09-21T14:21:22.387Z,16.66
2022-09-21T14:23:48.637Z,16.68
2022-09-21T14:26:14.895Z,16.70
2022-09-21T14:28:41.166Z,15.74
2022-09-21T14:31:07.464Z,15.92
2022-09-21T14:33:33.767Z,16.24
2022-09-21T14:36:01.755Z,16.22
2022-09-21T14:38:28.165Z,16.04
2022-09-21T14:40:54.421Z,15.89
2022-09-21T14:43:23.664Z,14.79
2022-09-21T14:45:50.320Z,13.96
2022-09-21T14:48:16.584Z,14.19
2022-09-21T14:50:43.060Z,14.06
2022-09-21T14:53:09.470Z,14.52
2022-09-21T14:55:35.718Z,14.87
2022-09-21T14:58:01.983Z,14.49
2022-09-21T15:00:28.247Z,14.96
2022-09-21T15:02:54.677Z,14.95
2022-09-21T15:05:20.941Z,15.14
2022-09-21T15:08:06.155Z,15.19
2022-09-21T15:10:54.528Z,15.19
2022-09-21T15:13:21.795Z,15.21
2022-09-21T15:15:48.133Z,15.16
2022-09-21T15:18:20.267Z,15.19
2022-09-21T15:20:48.163Z,15.16
2022-09-21T15:23:14.464Z,15.21
2022-09-21T15:25:40.725Z,15.29
2022-09-21T15:28:07.392Z,15.32
2022-09-21T15:30:33.675Z,15.33
2022-09-21T15:32:59.942Z,15.33
2022-09-21T15:35:27.680Z,15.35
2022-09-21T15:37:53.964Z,15.32
2022-09-21T15:40:20.614Z,15.38
2022-09-21T15:42:46.935Z,15.36
2022-09-21T15:45:13.186Z,15.37
2022-09-21T15:47:42.178Z,15.34
2022-09-21T15:50:09.167Z,15.06
2022-09-21T15:52:36.089Z,15.19
2022-09-21T15:55:02.783Z,15.21
2022-09-21T15:57:29.043Z,15.18
2022-09-21T15:59:56.078Z,15.17
2022-09-21T16:02:22.268Z,15.19
2022-09-21T16:04:52.456Z,15.19
2022-09-21T16:07:18.710Z,15.16
2022-09-21T16:09:47.923Z,14.53
2022-09-21T16:12:14.240Z,14.86
2022-09-21T16:14:55.908Z,14.90
2022-09-21T16:17:22.295Z,14.87
2022-09-21T16:19:49.609Z,14.53
2022-09-21T16:22:15.885Z,14.56
2022-09-21T16:24:42.163Z,14.43
2022-09-21T16:27:08.405Z,14.31
2022-09-21T16:29:34.677Z,14.48
2022-09-21T16:32:00.997Z,14.51
2022-09-21T16:34:27.293Z,14.50
2022-09-21T16:36:54.626Z,14.48
2022-09-21T16:39:22.642Z,14.46
2022-09-21T16:41:48.903Z,14.43
2022-09-21T16:44:19.625Z,14.41
2022-09-21T16:46:46.121Z,14.35
2022-09-21T16:49:15.346Z,14.28
2022-09-21T16:51:41.618Z,14.19
2022-09-21T16:54:08.474Z,14.13
2022-09-21T16:56:34.910Z,14.07
2022-09-21T16:59:03.863Z,13.98
2022-09-21T17:01:30.153Z,13.96
2022-09-21T17:03:56.718Z,13.95
2022-09-21T17:06:22.970Z,13.85
2022-09-21T17:08:49.282Z,13.72
2022-09-21T17:11:19.717Z,13.71
2022-09-21T17:13:45.988Z,13.67
2022-09-21T17:16:12.284Z,13.61
2022-09-21T17:18:38.937Z,13.55
2022-09-21T17:21:05.241Z,13.52
2022-09-21T17:23:31.523Z,13.48
2022-09-21T17:25:57.822Z,13.49
2022-09-21T17:28:25.942Z,13.38
2022-09-21T17:30:52.185Z,13.38
2022-09-21T17:33:19.801Z,13.35
2022-09-21T17:35:46.061Z,13.33
2022-09-21T17:38:14.526Z,13.31
2022-09-21T17:40:42.780Z,13.27
2022-09-21T17:43:11.878Z,13.19
2022-09-21T17:45:38.712Z,12.56
2022-09-21T17:48:04.971Z,12.91
2022-09-21T17:50:31.490Z,12.64
2022-09-21T17:53:16.258Z,12.76
2022-09-21T17:55:42.506Z,12.62
2022-09-21T17:58:09.812Z,12.78
2022-09-21T18:00:36.077Z,12.87
2022-09-21T18:03:02.699Z,12.80
2022-09-21T18:05:29.086Z,12.83
2022-09-21T18:07:55.336Z,12.85
2022-09-21T18:10:21.580Z,12.82
2022-09-21T18:12:48.757Z,12.81
2022-09-21T18:15:15.592Z,12.75
2022-09-21T18:17:41.838Z,12.66
2022-09-21T18:20:08.168Z,12.24
2022-09-21T18:22:37.260Z,12.40
2022-09-21T18:25:03.530Z,12.47
2022-09-21T18:27:32.942Z,12.49
2022-09-21T18:29:59.202Z,12.49
2022-09-21T18:32:25.462Z,12.29
2022-09-21T18:34:51.958Z,12.35
2022-09-21T18:37:18.661Z,12.40
2022-09-21T18:39:44.917Z,12.34
2022-09-21T18:42:11.175Z,12.32
2022-09-21T18:44:37.433Z,12.14
2022-09-21T18:47:03.845Z,12.13
2022-09-21T18:49:31.322Z,12.07
2022-09-21T18:51:57.859Z,12.14
2022-09-21T18:54:24.215Z,12.14
2022-09-21T18:56:50.489Z,12.06
2022-09-21T18:59:17.187Z,12.02
2022-09-21T19:01:43.568Z,12.01
2022-09-21T19:04:09.896Z,12.00
2022-09-21T19:06:37.472Z,11.97
2022-09-21T19:09:03.748Z,11.96
2022-09-21T19:11:32.094Z,11.92
2022-09-21T19:13:58.342Z,11.93
2022-09-21T19:16:24.623Z,11.85
2022-09-21T19:18:51.504Z,11.81
2022-09-21T19:21:17.759Z,11.76
2022-09-21T19:23:44.009Z,11.74
2022-09-21T19:26:12.018Z,11.67
2022-09-21T19:28:41.596Z,11.67
2022-09-21T19:31:07.860Z,11.38
2022-09-21T19:33:51.014Z,11.36
2022-09-21T19:36:17.705Z,11.46
2022-09-21T19:38:43.992Z,11.38
2022-09-21T19:41:10.307Z,11.45
2022-09-21T19:43:36.569Z,11.40
2022-09-21T19:46:04.951Z,11.44
2022-09-21T19:48:31.279Z,11.43
2022-09-21T19:50:58.794Z,11.18
2022-09-21T19:53:43.849Z,11.25
2022-09-21T19:56:28.577Z,11.24
2022-09-21T19:59:13.346Z,11.23
2022-09-21T20:01:42.087Z,11.06
2022-09-21T20:04:08.386Z,11.11
2022-09-21T20:06:35.554Z,10.96
2022-09-21T20:09:03.087Z,11.13
2022-09-21T20:11:29.679Z,11.08
2022-09-21T20:13:56.338Z,11.16
2022-09-21T20:16:22.972Z,11.19
2022-09-21T20:18:49.879Z,11.21
2022-09-21T20:21:16.236Z,11.23
2022-09-21T20:23:42.482Z,11.22
2022-09-21T20:26:08.745Z,11.19
2022-09-21T20:28:35.879Z,11.22
2022-09-21T20:31:02.131Z,11.18
2022-09-21T20:33:28.432Z,11.19
2022-09-21T20:35:55.812Z,11.19
2022-09-21T20:38:23.009Z,11.18
2022-09-21T20:40:49.233Z,11.11
2022-09-21T20:43:15.852Z,11.14
2022-09-21T20:45:48.006Z,11.13
2022-09-21T20:48:14.435Z,10.99
2022-09-21T20:50:40.688Z,11.04
2022-09-21T20:53:07.735Z,11.07
2022-09-21T20:55:33.991Z,10.98
2022-09-21T21:00:53.048Z,11.01
2022-09-21T21:03:21.476Z,10.74
2022-09-21T21:05:47.740Z,10.90
2022-09-21T21:08:13.990Z,10.92
2022-09-21T21:10:40.379Z,10.94
2022-09-21T21:13:06.626Z,10.95
2022-09-21T21:15:32.902Z,10.93
2022-09-21T21:17:59.159Z,10.96
2022-09-21T21:20:25.646Z,10.96
2022-09-21T21:22:51.994Z,10.95
2022-09-21T21:25:18.281Z,10.90
2022-09-21T21:27:44.544Z,10.89
2022-09-21T21:30:11.256Z,10.90
2022-09-21T21:32:37.531Z,10.89
2022-09-21T21:35:03.819Z,10.94
2022-09-21T21:37:30.071Z,10.96
2022-09-21T21:39:56.907Z,10.92
2022-09-21T21:42:24.729Z,10.92
2022-09-21T21:44:51.035Z,10.93
2022-09-21T21:50:03.706Z,10.91
2022-09-21T21:52:30.309Z,10.95
2022-09-21T21:54:56.591Z,10.95
2022-09-21T21:57:22.842Z,10.98
2022-09-21T21:59:49.096Z,11.01
2022-09-21T22:02:15.644Z,11.02
2022-09-21T22:04:42.091Z,11.03
2022-09-21T22:07:08.360Z,10.96
2022-09-21T22:09:34.620Z,10.96
2022-09-21T22:12:01.851Z,10.98
2022-09-21T22:14:28.247Z,10.97
2022-09-21T22:16:54.616Z,10.98
2022-09-21T22:19:20.975Z,10.99
2022-09-21T22:21:51.721Z,10.97
2022-09-21T22:24:21.066Z,10.98
2022-09-21T22:26:48.436Z,10.96
2022-09-21T22:29:14.727Z,10.96
2022-09-21T22:31:41.187Z,10.90
2022-09-21T22:34:08.970Z,10.76
2022-09-21T22:36:35.312Z,10.88
2022-09-21T22:39:01.630Z,10.89
2022-09-21T22:41:27.883Z,10.91
2022-09-21T22:43:54.139Z,10.92
2022-09-21T22:46:20.398Z,10.90
2022-09-21T22:48:46.827Z,10.87
2022-09-21T22:51:13.081Z,10.87
2022-09-21T22:53:39.330Z,10.86
2022-09-21T22:56:05.578Z,10.89
2022-09-21T22:58:31.851Z,10.90
2022-09-21T23:00:58.116Z,10.88
2022-09-21T23:03:24.391Z,10.82
2022-09-21T23:05:50.637Z,10.84
2022-09-21T23:08:16.895Z,10.86
2022-09-21T23:10:43.155Z,10.83
2022-09-21T23:13:09.396Z,10.85
2022-09-21T23:15:35.663Z,10.86
2022-09-21T23:18:02.052Z,10.90
2022-09-21T23:20:28.310Z,10.83
2022-09-21T23:22:54.596Z,10.89
2022-09-21T23:25:20.883Z,10.85
2022-09-21T23:27:47.135Z,10.88
2022-09-21T23:30:13.404Z,10.90
2022-09-21T23:32:39.646Z,10.91
2022-09-21T23:35:05.899Z,10.93
2022-09-21T23:37:32.158Z,10.69
2022-09-21T23:39:58.734Z,10.81
2022-09-21T23:42:24.974Z,10.71
2022-09-21T23:44:51.231Z,10.72
2022-09-21T23:47:17.487Z,10.61
2022-09-21T23:49:43.744Z,10.75
2022-09-21T23:52:10.009Z,10.81
2022-09-21T23:54:36.602Z,10.83
2022-09-21T23:57:02.918Z,10.84
2022-09-21T23:59:29.171Z,10.85
